Time,TemperatureF,DewpointF,PressureIn,WindDirection,WindDirectionDegrees,WindSpeedMPH,WindSpeedGustMPH,Humidity,HourlyPrecipIn,Conditions,Clouds,dailyrainin,SolarRadiationWatts/m^2,SoftwareType,DateUTC
2013-08-21 00:21:00,62.0,56.0,-100.00,NNW,333,7.0,10.0,81,0.00,,,0.00,0.000000,,2013-08-21 07:21:00,
2013-08-21 00:32:00,62.0,56.0,-100.00,NNW,333,7.0,10.0,81,0.00,,,0.00,0.000000,,2013-08-21 07:32:00,
2013-08-21 00:42:00,62.0,56.0,-100.00,NNW,333,7.0,10.0,81,0.00,,,0.00,0.000000,,2013-08-21 07:42:00,
2013-08-21 00:50:00,59.0,56.0,-100.00,NW,315,4.0,10.0,89,0.00,,,0.00,0.000000,,2013-08-21 07:50:00,
2013-08-21 01:22:00,59.0,56.0,-100.00,NW,315,4.0,10.0,89,0.00,,,0.00,0.000000,,2013-08-21 08:22:00,
2013-08-21 01:32:00,59.0,56.0,-100.00,NW,315,4.0,10.0,89,0.00,,,0.00,0.000000,,2013-08-21 08:32:00,
2013-08-21 01:43:00,59.0,56.0,-100.00,NW,315,4.0,10.0,89,0.00,,,0.00,0.000000,,2013-08-21 08:43:00,
2013-08-21 01:50:00,58.0,56.0,-100.00,NW,317,5.0,8.0,94,0.00,,,0.00,0.000000,,2013-08-21 08:50:00,
2013-08-21 02:22:00,58.0,56.0,-100.00,NW,317,5.0,8.0,94,0.00,,,0.00,0.000000,,2013-08-21 09:22:00,
2013-08-21 02:33:00,58.0,56.0,-100.00,NW,317,5.0,8.0,94,0.00,,,0.00,0.000000,,2013-08-21 09:33:00,
2013-08-21 02:43:00,58.0,56.0,-100.00,NW,317,5.0,8.0,94,0.00,,,0.00,0.000000,,2013-08-21 09:43:00,
2013-08-21 02:50:00,57.0,56.0,-100.00,WNW,288,4.0,6.0,95,0.00,,,0.00,0.000000,,2013-08-21 09:50:00,
2013-08-21 03:23:00,57.0,56.0,-100.00,WNW,288,4.0,6.0,95,0.00,,,0.00,0.000000,,2013-08-21 10:23:00,
2013-08-21 03:33:00,57.0,56.0,-100.00,WNW,288,4.0,6.0,95,0.00,,,0.00,0.000000,,2013-08-21 10:33:00,
2013-08-21 03:43:00,57.0,56.0,-100.00,WNW,288,4.0,6.0,95,0.00,,,0.00,0.000000,,2013-08-21 10:43:00,
2013-08-21 03:50:00,57.0,56.0,-100.00,WNW,287,4.0,7.0,96,0.00,,,0.00,0.000000,,2013-08-21 10:50:00,
2013-08-21 04:22:00,57.0,56.0,-100.00,WNW,287,4.0,7.0,96,0.00,,,0.00,0.000000,,2013-08-21 11:22:00,
2013-08-21 04:33:00,57.0,56.0,-100.00,WNW,287,4.0,7.0,96,0.00,,,0.00,0.000000,,2013-08-21 11:33:00,
2013-08-21 04:42:00,57.0,56.0,-100.00,WNW,287,4.0,7.0,96,0.00,,,0.00,0.000000,,2013-08-21 11:42:00,
2013-08-21 04:50:00,57.0,56.0,-100.00,West,277,3.0,6.0,97,0.00,,,0.00,0.000000,,2013-08-21 11:50:00,
2013-08-21 05:22:00,57.0,56.0,-100.00,West,277,3.0,6.0,97,0.00,,,0.00,0.000000,,2013-08-21 12:22:00,
2013-08-21 05:32:00,57.0,56.0,-100.00,West,277,3.0,6.0,97,0.00,,,0.00,0.000000,,2013-08-21 12:32:00,
2013-08-21 05:42:00,57.0,56.0,-100.00,West,277,3.0,6.0,97,0.00,,,0.00,0.000000,,2013-08-21 12:42:00,
2013-08-21 05:50:00,57.0,56.0,-100.00,WSW,242,2.0,6.0,97,0.00,,,0.00,0.000000,,2013-08-21 12:50:00,
2013-08-21 06:21:00,57.0,56.0,-100.00,WSW,242,2.0,6.0,97,0.00,,,0.00,0.000000,,2013-08-21 13:21:00,
2013-08-21 06:32:00,57.0,56.0,-100.00,WSW,242,2.0,6.0,97,0.00,,,0.00,0.000000,,2013-08-21 13:32:00,
2013-08-21 06:42:00,57.0,56.0,-100.00,WSW,242,2.0,6.0,97,0.00,,,0.00,0.000000,,2013-08-21 13:42:00,
2013-08-21 06:50:00,57.0,56.0,-100.00,West,271,4.0,6.0,97,0.00,,,0.00,1.000000,,2013-08-21 13:50:00,
2013-08-21 07:21:00,57.0,56.0,-100.00,West,271,4.0,6.0,97,0.00,,,0.00,1.000000,,2013-08-21 14:21:00,
2013-08-21 07:32:00,57.0,56.0,-100.00,West,271,4.0,6.0,97,0.00,,,0.00,1.000000,,2013-08-21 14:32:00,
2013-08-21 07:42:00,57.0,56.0,-100.00,West,271,4.0,6.0,97,0.00,,,0.00,1.000000,,2013-08-21 14:42:00,
2013-08-21 07:50:00,58.0,57.0,-100.00,NE,42,2.0,6.0,95,0.00,,,0.00,17.000000,,2013-08-21 14:50:00,
2013-08-21 08:22:00,58.0,57.0,-100.00,NE,42,2.0,6.0,95,0.00,,,0.00,17.000000,,2013-08-21 15:22:00,
2013-08-21 08:34:00,58.0,57.0,-100.00,NE,42,2.0,6.0,95,0.00,,,0.00,17.000000,,2013-08-21 15:34:00,
2013-08-21 08:43:00,58.0,57.0,-100.00,NE,42,2.0,6.0,95,0.00,,,0.00,17.000000,,2013-08-21 15:43:00,
2013-08-21 08:50:00,60.0,57.0,-100.00,SSW,194,3.0,7.0,89,0.00,,,0.00,74.000000,,2013-08-21 15:50:00,
2013-08-21 09:24:00,60.0,57.0,-100.00,SSW,194,3.0,7.0,89,0.00,,,0.00,74.000000,,2013-08-21 16:24:00,
2013-08-21 09:34:00,60.0,57.0,-100.00,SSW,194,3.0,7.0,89,0.00,,,0.00,74.000000,,2013-08-21 16:34:00,
2013-08-21 09:43:00,60.0,57.0,-100.00,SSW,194,3.0,7.0,89,0.00,,,0.00,74.000000,,2013-08-21 16:43:00,
2013-08-21 09:50:00,64.0,57.0,-100.00,NW,319,5.0,9.0,79,0.00,,,0.00,303.000000,,2013-08-21 16:50:00,
2013-08-21 10:23:00,64.0,57.0,-100.00,NW,319,5.0,9.0,79,0.00,,,0.00,303.000000,,2013-08-21 17:23:00,
2013-08-21 10:34:00,64.0,57.0,-100.00,NW,319,5.0,9.0,79,0.00,,,0.00,303.000000,,2013-08-21 17:34:00,
2013-08-21 10:43:00,64.0,57.0,-100.00,NW,319,5.0,9.0,79,0.00,,,0.00,303.000000,,2013-08-21 17:43:00,
2013-08-21 10:50:00,68.0,58.0,-100.00,NW,305,6.0,11.0,70,0.00,,,0.00,600.000000,,2013-08-21 17:50:00,
2013-08-21 11:22:00,68.0,58.0,-100.00,NW,305,6.0,11.0,70,0.00,,,0.00,600.000000,,2013-08-21 18:22:00,
2013-08-21 11:32:00,68.0,58.0,-100.00,NW,305,6.0,11.0,70,0.00,,,0.00,600.000000,,2013-08-21 18:32:00,
2013-08-21 11:42:00,68.0,58.0,-100.00,NW,305,6.0,11.0,70,0.00,,,0.00,600.000000,,2013-08-21 18:42:00,
2013-08-21 11:50:00,73.0,59.0,-100.00,NW,324,6.0,10.0,61,0.00,,,0.00,730.000000,,2013-08-21 18:50:00,
2013-08-21 12:22:00,73.0,59.0,-100.00,NW,324,6.0,10.0,61,0.00,,,0.00,730.000000,,2013-08-21 19:22:00,
2013-08-21 12:32:00,73.0,59.0,-100.00,NW,324,6.0,10.0,61,0.00,,,0.00,730.000000,,2013-08-21 19:32:00,
2013-08-21 12:42:00,73.0,59.0,-100.00,NW,324,6.0,10.0,61,0.00,,,0.00,730.000000,,2013-08-21 19:42:00,
2013-08-21 12:50:00,78.0,59.0,-100.00,NW,309,8.0,12.0,53,0.00,,,0.00,810.000000,,2013-08-21 19:50:00,
2013-08-21 13:22:00,78.0,59.0,-100.00,NW,309,8.0,12.0,53,0.00,,,0.00,810.000000,,2013-08-21 20:22:00,
2013-08-21 13:32:00,78.0,59.0,-100.00,NW,309,8.0,12.0,53,0.00,,,0.00,810.000000,,2013-08-21 20:32:00,
2013-08-21 13:42:00,78.0,59.0,-100.00,NW,309,8.0,12.0,53,0.00,,,0.00,810.000000,,2013-08-21 20:42:00,
2013-08-21 13:50:00,81.0,58.0,-100.00,WNW,292,10.0,14.0,45,0.00,,,0.00,835.000000,,2013-08-21 20:50:00,
2013-08-21 14:21:00,81.0,58.0,-100.00,WNW,292,10.0,14.0,45,0.00,,,0.00,835.000000,,2013-08-21 21:21:00,
2013-08-21 14:34:00,81.0,58.0,-100.00,WNW,292,10.0,14.0,45,0.00,,,0.00,835.000000,,2013-08-21 21:34:00,
2013-08-21 14:44:00,81.0,58.0,-100.00,WNW,292,10.0,14.0,45,0.00,,,0.00,835.000000,,2013-08-21 21:44:00,
2013-08-21 14:50:00,81.0,57.0,-100.00,NW,325,11.0,17.0,44,0.00,,,-99.99,815.000000,,2013-08-21 21:50:00,
2013-08-21 15:24:00,81.0,57.0,-100.00,NW,325,11.0,17.0,44,0.00,,,-99.99,815.000000,,2013-08-21 22:24:00,
2013-08-21 15:34:00,81.0,57.0,-100.00,NW,325,11.0,17.0,44,0.00,,,-99.99,815.000000,,2013-08-21 22:34:00,
2013-08-21 15:43:00,81.0,57.0,-100.00,NW,325,11.0,17.0,44,0.00,,,-99.99,815.000000,,2013-08-21 22:43:00,
2013-08-21 15:50:00,81.0,58.0,-100.00,NW,326,14.0,18.0,45,0.00,,,0.00,740.000000,,2013-08-21 22:50:00,
2013-08-21 16:22:00,81.0,58.0,-100.00,NW,326,14.0,18.0,45,0.00,,,0.00,740.000000,,2013-08-21 23:22:00,
2013-08-21 16:34:00,81.0,58.0,-100.00,NW,326,14.0,18.0,45,0.00,,,0.00,740.000000,,2013-08-21 23:34:00,
2013-08-21 16:42:00,81.0,58.0,-100.00,NW,326,14.0,18.0,45,0.00,,,0.00,740.000000,,2013-08-21 23:42:00,
2013-08-21 16:50:00,78.0,55.0,-100.00,NNW,330,16.0,21.0,45,0.00,,,-99.99,603.000000,,2013-08-21 23:50:00,
2013-08-21 17:21:00,78.0,55.0,-100.00,NNW,330,16.0,21.0,45,0.00,,,-99.99,603.000000,,2013-08-22 00:21:00,
2013-08-21 17:32:00,78.0,55.0,-100.00,NNW,330,16.0,21.0,45,0.00,,,-99.99,603.000000,,2013-08-22 00:32:00,
2013-08-21 17:42:00,78.0,55.0,-100.00,NNW,330,16.0,21.0,45,0.00,,,-99.99,603.000000,,2013-08-22 00:42:00,
2013-08-21 17:50:00,74.0,55.0,-100.00,NNW,333,13.0,24.0,51,0.00,,,0.00,446.000000,,2013-08-22 00:50:00,
2013-08-21 18:22:00,74.0,55.0,-100.00,NNW,333,13.0,24.0,51,0.00,,,0.00,446.000000,,2013-08-22 01:22:00,
2013-08-21 18:32:00,74.0,55.0,-100.00,NNW,333,13.0,24.0,51,0.00,,,0.00,446.000000,,2013-08-22 01:32:00,
2013-08-21 18:42:00,74.0,55.0,-100.00,NNW,333,13.0,24.0,51,0.00,,,0.00,446.000000,,2013-08-22 01:42:00,
2013-08-21 18:50:00,68.0,53.0,-100.00,NNW,336,13.0,19.0,59,0.00,,,0.00,263.000000,,2013-08-22 01:50:00,
2013-08-21 19:22:00,68.0,53.0,-100.00,NNW,336,13.0,19.0,59,0.00,,,0.00,263.000000,,2013-08-22 02:22:00,
2013-08-21 19:32:00,68.0,53.0,-100.00,NNW,336,13.0,19.0,59,0.00,,,0.00,263.000000,,2013-08-22 02:32:00,
2013-08-21 19:43:00,68.0,53.0,-100.00,NNW,336,13.0,19.0,59,0.00,,,0.00,263.000000,,2013-08-22 02:43:00,
2013-08-21 19:50:00,61.0,52.0,-100.00,NNW,343,10.0,17.0,71,0.00,,,0.00,81.000000,,2013-08-22 02:50:00,
2013-08-21 20:45:00,61.0,52.0,-100.00,NNW,343,10.0,17.0,71,0.00,,,0.00,81.000000,,2013-08-22 03:45:00,
2013-08-21 20:50:00,58.0,53.0,-100.00,North,354,7.0,14.0,83,0.00,,,0.00,2.000000,,2013-08-22 03:50:00,
2013-08-21 21:23:00,58.0,53.0,-100.00,North,354,7.0,14.0,83,0.00,,,0.00,2.000000,,2013-08-22 04:23:00,
2013-08-21 21:34:00,58.0,53.0,-100.00,North,354,7.0,14.0,83,0.00,,,0.00,2.000000,,2013-08-22 04:34:00,
2013-08-21 21:44:00,58.0,53.0,-100.00,North,354,7.0,14.0,83,0.00,,,0.00,2.000000,,2013-08-22 04:44:00,
2013-08-21 21:50:00,57.0,53.0,-100.00,NNE,21,5.0,10.0,88,0.00,,,0.00,0.000000,,2013-08-22 04:50:00,
2013-08-21 22:22:00,57.0,53.0,-100.00,NNE,21,5.0,10.0,88,0.00,,,0.00,0.000000,,2013-08-22 05:22:00,
2013-08-21 22:34:00,57.0,53.0,-100.00,NNE,21,5.0,10.0,88,0.00,,,0.00,0.000000,,2013-08-22 05:34:00,
2013-08-21 22:43:00,57.0,53.0,-100.00,NNE,21,5.0,10.0,88,0.00,,,0.00,0.000000,,2013-08-22 05:43:00,
2013-08-21 22:50:00,57.0,53.0,-100.00,WSW,241,3.0,6.0,88,0.00,,,0.00,0.000000,,2013-08-22 05:50:00,
2013-08-21 23:22:00,57.0,53.0,-100.00,WSW,241,3.0,6.0,88,0.00,,,0.00,0.000000,,2013-08-22 06:22:00,
2013-08-21 23:32:00,57.0,53.0,-100.00,WSW,241,3.0,6.0,88,0.00,,,0.00,0.000000,,2013-08-22 06:32:00,
2013-08-21 23:42:00,57.0,53.0,-100.00,WSW,241,3.0,6.0,88,0.00,,,0.00,0.000000,,2013-08-22 06:42:00,
2013-08-21 23:50:00,56.0,53.0,-100.00,SSW,194,0.0,4.0,90,0.00,,,0.00,0.000000,,2013-08-22 06:50:00,